sensor_id;sensor_type;location;lat;lon;timestamp;pressure;altitude;pressure_sealevel;temperature;humidity
54455;BME280;40364;52.270;10.546;2023-05-01T00:01:39;101041.88;;;13.91;44.29
54455;BME280;40364;52.270;10.546;2023-05-01T00:04:06;101044.44;;;14.24;44.36
54455;BME280;40364;52.270;10.546;2023-05-01T00:06:32;101045.47;;;14.31;43.86
54455;BME280;40364;52.270;10.546;2023-05-01T00:08:59;101027.59;;;14.36;43.72
54455;BME280;40364;52.270;10.546;2023-05-01T00:11:26;101026.78;;;14.35;43.59
54455;BME280;40364;52.270;10.546;2023-05-01T00:13:54;101025.97;;;14.35;43.77
54455;BME280;40364;52.270;10.546;2023-05-01T00:16:20;101038.50;;;13.97;44.19
54455;BME280;40364;52.270;10.546;2023-05-01T00:18:47;101025.16;;;14.34;43.54
54455;BME280;40364;52.270;10.546;2023-05-01T00:21:13;101023.97;;;14.07;43.62
54455;BME280;40364;52.270;10.546;2023-05-01T00:23:41;101020.50;;;14.26;43.81
54455;BME280;40364;52.270;10.546;2023-05-01T00:26:07;101028.47;;;13.84;44.35
54455;BME280;40364;52.270;10.546;2023-05-01T00:28:34;101030.56;;;13.99;43.95
54455;BME280;40364;52.270;10.546;2023-05-01T00:31:02;101020.25;;;14.31;43.67
54455;BME280;40364;52.270;10.546;2023-05-01T00:33:29;101012.22;;;14.30;43.39
54455;BME280;40364;52.270;10.546;2023-05-01T00:35:55;101012.56;;;14.28;43.47
54455;BME280;40364;52.270;10.546;2023-05-01T00:38:22;101012.56;;;14.28;43.43
54455;BME280;40364;52.270;10.546;2023-05-01T00:40:49;101002.13;;;14.13;43.49
54455;BME280;40364;52.270;10.546;2023-05-01T00:43:16;100985.19;;;14.09;43.53
54455;BME280;40364;52.270;10.546;2023-05-01T00:45:44;100998.13;;;14.42;43.09
54455;BME280;40364;52.270;10.546;2023-05-01T00:48:12;101001.63;;;13.95;43.58
54455;BME280;40364;52.270;10.546;2023-05-01T00:50:40;100996.03;;;13.95;43.59
54455;BME280;40364;52.270;10.546;2023-05-01T00:53:08;100981.91;;;13.52;44.02
54455;BME280;40364;52.270;10.546;2023-05-01T00:55:35;100979.31;;;13.99;43.49
54455;BME280;40364;52.270;10.546;2023-05-01T00:58:02;100977.63;;;14.10;43.41
54455;BME280;40364;52.270;10.546;2023-05-01T01:00:30;100981.13;;;14.07;43.33
54455;BME280;40364;52.270;10.546;2023-05-01T01:02:56;100968.94;;;13.99;43.44
54455;BME280;40364;52.270;10.546;2023-05-01T01:05:26;100974.69;;;13.91;43.53
54455;BME280;40364;52.270;10.546;2023-05-01T01:08:04;100975.75;;;13.86;43.79
54455;BME280;40364;52.270;10.546;2023-05-01T01:10:40;100962.91;;;14.13;42.70
54455;BME280;40364;52.270;10.546;2023-05-01T01:13:12;100969.09;;;14.34;42.60
54455;BME280;40364;52.270;10.546;2023-05-01T01:15:44;100963.81;;;14.17;42.67
54455;BME280;40364;52.270;10.546;2023-05-01T01:18:18;100958.53;;;14.00;43.23
54455;BME280;40364;52.270;10.546;2023-05-01T01:20:49;100963.81;;;13.61;43.33
54455;BME280;40364;52.270;10.546;2023-05-01T01:23:41;100950.59;;;14.02;43.04
54455;BME280;40364;52.270;10.546;2023-05-01T01:26:32;100952.94;;;14.00;42.80
54455;BME280;40364;52.270;10.546;2023-05-01T01:29:31;100950.59;;;14.02;43.11
54455;BME280;40364;52.270;10.546;2023-05-01T01:32:09;100938.28;;;13.91;43.11
54455;BME280;40364;52.270;10.546;2023-05-01T01:34:43;100945.88;;;13.50;43.54
54455;BME280;40364;52.270;10.546;2023-05-01T01:37:12;100941.28;;;13.70;43.76
54455;BME280;40364;52.270;10.546;2023-05-01T01:39:45;100946.22;;;13.61;43.84
54455;BME280;40364;52.270;10.546;2023-05-01T01:42:18;100937.78;;;13.73;43.46
54455;BME280;40364;52.270;10.546;2023-05-01T01:44:48;100938.53;;;13.58;43.99
54455;BME280;40364;52.270;10.546;2023-05-01T01:47:17;100936.44;;;13.82;43.03
54455;BME280;40364;52.270;10.546;2023-05-01T01:49:48;100942.09;;;13.70;44.02
54455;BME280;40364;52.270;10.546;2023-05-01T01:52:17;100924.75;;;13.65;43.99
54455;BME280;40364;52.270;10.546;2023-05-01T01:54:49;100926.66;;;13.76;43.85
54455;BME280;40364;52.270;10.546;2023-05-01T01:57:17;100919.28;;;13.84;43.56
54455;BME280;40364;52.270;10.546;2023-05-01T01:59:45;100923.00;;;13.88;43.80
54455;BME280;40364;52.270;10.546;2023-05-01T02:02:13;100917.75;;;13.87;44.61
54455;BME280;40364;52.270;10.546;2023-05-01T02:04:41;100906.91;;;13.57;44.63
54455;BME280;40364;52.270;10.546;2023-05-01T02:07:11;100916.28;;;13.49;45.85
54455;BME280;40364;52.270;10.546;2023-05-01T02:09:40;100907.63;;;13.54;45.23
54455;BME280;40364;52.270;10.546;2023-05-01T02:12:08;100898.16;;;13.59;45.19
54455;BME280;40364;52.270;10.546;2023-05-01T02:14:36;100896.75;;;13.65;45.07
54455;BME280;40364;52.270;10.546;2023-05-01T02:17:04;100901.47;;;13.76;45.13
54455;BME280;40364;52.270;10.546;2023-05-01T02:19:33;100895.81;;;13.89;44.79
54455;BME280;40364;52.270;10.546;2023-05-01T02:22:00;100885.88;;;13.75;44.59
54455;BME280;40364;52.270;10.546;2023-05-01T02:24:29;100889.28;;;13.85;44.66
54455;BME280;40364;52.270;10.546;2023-05-01T02:27:00;100886.94;;;13.87;44.79
54455;BME280;40364;52.270;10.546;2023-05-01T02:29:30;100885.00;;;13.59;45.06
54455;BME280;40364;52.270;10.546;2023-05-01T02:31:58;100884.41;;;13.54;45.14
54455;BME280;40364;52.270;10.546;2023-05-01T02:34:25;100889.28;;;13.29;45.83
54455;BME280;40364;52.270;10.546;2023-05-01T02:36:52;100881.38;;;13.31;46.06
54455;BME280;40364;52.270;10.546;2023-05-01T02:39:18;100873.44;;;13.33;45.79
54455;BME280;40364;52.270;10.546;2023-05-01T02:41:47;100877.19;;;13.25;46.48
54455;BME280;40364;52.270;10.546;2023-05-01T02:44:14;100868.56;;;13.18;46.33
54455;BME280;40364;52.270;10.546;2023-05-01T02:46:42;100874.16;;;13.18;46.14
54455;BME280;40364;52.270;10.546;2023-05-01T02:49:11;100863.91;;;13.09;46.73
54455;BME280;40364;52.270;10.546;2023-05-01T02:51:38;100870.09;;;13.03;46.74
54455;BME280;40364;52.270;10.546;2023-05-01T02:54:06;100867.41;;;13.19;46.97
54455;BME280;40364;52.270;10.546;2023-05-01T02:56:33;100861.38;;;12.92;47.54
54455;BME280;40364;52.270;10.546;2023-05-01T02:59:01;100859.25;;;13.13;47.66
54455;BME280;40364;52.270;10.546;2023-05-01T03:01:28;100839.56;;;13.10;47.35
54455;BME280;40364;52.270;10.546;2023-05-01T03:03:55;100846.47;;;12.88;47.77
54455;BME280;40364;52.270;10.546;2023-05-01T03:06:22;100840.97;;;13.04;47.63
54455;BME280;40364;52.270;10.546;2023-05-01T03:08:49;100838.66;;;12.94;47.37
54455;BME280;40364;52.270;10.546;2023-05-01T03:11:15;100827.47;;;13.06;47.40
54455;BME280;40364;52.270;10.546;2023-05-01T03:13:42;100829.91;;;13.07;47.29
54455;BME280;40364;52.270;10.546;2023-05-01T03:16:10;100822.31;;;13.08;47.44
54455;BME280;40364;52.270;10.546;2023-05-01T03:18:37;100816.19;;;12.90;47.57
54455;BME280;40364;52.270;10.546;2023-05-01T03:21:04;100824.38;;;12.83;48.08
54455;BME280;40364;52.270;10.546;2023-05-01T03:23:30;100821.00;;;12.65;48.31
54455;BME280;40364;52.270;10.546;2023-05-01T03:25:57;100824.63;;;12.78;48.35
54455;BME280;40364;52.270;10.546;2023-05-01T03:28:23;100823.41;;;12.91;48.31
54455;BME280;40364;52.270;10.546;2023-05-01T03:30:50;100815.34;;;13.02;48.05
54455;BME280;40364;52.270;10.546;2023-05-01T03:33:18;100814.09;;;12.87;48.80
54455;BME280;40364;52.270;10.546;2023-05-01T03:35:45;100813.91;;;12.80;48.79
54455;BME280;40364;52.270;10.546;2023-05-01T03:38:12;100809.66;;;12.86;48.93
54455;BME280;40364;52.270;10.546;2023-05-01T03:40:38;100804.44;;;12.85;48.99
54455;BME280;40364;52.270;10.546;2023-05-01T03:43:05;100798.41;;;12.82;48.81
54455;BME280;40364;52.270;10.546;2023-05-01T03:45:32;100812.50;;;12.74;49.06
54455;BME280;40364;52.270;10.546;2023-05-01T03:47:58;100816.94;;;12.75;49.35
54455;BME280;40364;52.270;10.546;2023-05-01T03:50:26;100802.66;;;13.04;48.90
54455;BME280;40364;52.270;10.546;2023-05-01T03:52:53;100796.47;;;12.99;49.11
54455;BME280;40364;52.270;10.546;2023-05-01T03:55:19;100803.66;;;12.72;48.99
54455;BME280;40364;52.270;10.546;2023-05-01T03:57:46;100794.16;;;12.89;49.08
54455;BME280;40364;52.270;10.546;2023-05-01T04:00:13;100795.78;;;12.50;49.42
54455;BME280;40364;52.270;10.546;2023-05-01T04:02:39;100799.25;;;12.59;49.28
54455;BME280;40364;52.270;10.546;2023-05-01T04:05:06;100794.81;;;12.70;49.99
54455;BME280;40364;52.270;10.546;2023-05-01T04:07:34;100787.03;;;13.03;49.34
54455;BME280;40364;52.270;10.546;2023-05-01T04:10:02;100781.94;;;12.41;49.44
54455;BME280;40364;52.270;10.546;2023-05-01T04:12:29;100774.88;;;12.84;48.99
54455;BME280;40364;52.270;10.546;2023-05-01T04:14:55;100779.72;;;12.46;49.99
54455;BME280;40364;52.270;10.546;2023-05-01T04:17:22;100782.81;;;12.69;49.57
54455;BME280;40364;52.270;10.546;2023-05-01T04:19:49;100772.47;;;12.98;49.29
54455;BME280;40364;52.270;10.546;2023-05-01T04:22:16;100774.06;;;13.11;48.80
54455;BME280;40364;52.270;10.546;2023-05-01T04:24:44;100776.69;;;13.32;48.34
54455;BME280;40364;52.270;10.546;2023-05-01T04:27:11;100762.28;;;13.18;48.08
54455;BME280;40364;52.270;10.546;2023-05-01T04:29:37;100771.25;;;13.23;47.73
54455;BME280;40364;52.270;10.546;2023-05-01T04:32:05;100759.31;;;13.86;46.97
54455;BME280;40364;52.270;10.546;2023-05-01T04:34:31;100758.41;;;13.66;47.23
54455;BME280;40364;52.270;10.546;2023-05-01T04:36:58;100754.00;;;13.80;46.95
54455;BME280;40364;52.270;10.546;2023-05-01T04:39:26;100758.16;;;13.87;46.79
54455;BME280;40364;52.270;10.546;2023-05-01T04:41:54;100753.72;;;13.86;46.96
54455;BME280;40364;52.270;10.546;2023-05-01T04:44:20;100744.50;;;13.85;47.21
54455;BME280;40364;52.270;10.546;2023-05-01T04:46:47;100747.84;;;13.91;47.20
54455;BME280;40364;52.270;10.546;2023-05-01T04:49:14;100746.59;;;14.04;47.42
54455;BME280;40364;52.270;10.546;2023-05-01T04:51:40;100744.25;;;14.06;47.29
54455;BME280;40364;52.270;10.546;2023-05-01T04:54:07;100746.28;;;14.09;46.67
54455;BME280;40364;52.270;10.546;2023-05-01T04:56:34;100747.78;;;14.03;46.43
54455;BME280;40364;52.270;10.546;2023-05-01T04:59:01;100740.16;;;14.19;45.27
54455;BME280;40364;52.270;10.546;2023-05-01T05:01:28;100750.00;;;14.13;45.66
54455;BME280;40364;52.270;10.546;2023-05-01T05:03:55;100744.28;;;14.25;45.83
54455;BME280;40364;52.270;10.546;2023-05-01T05:06:21;100736.06;;;14.32;45.13
54455;BME280;40364;52.270;10.546;2023-05-01T05:08:48;100738.31;;;14.42;45.16
54455;BME280;40364;52.270;10.546;2023-05-01T05:11:16;100738.47;;;14.49;44.91
54455;BME280;40364;52.270;10.546;2023-05-01T05:13:43;100744.56;;;14.20;44.92
54455;BME280;40364;52.270;10.546;2023-05-01T05:16:11;100749.72;;;14.34;45.00
54455;BME280;40364;52.270;10.546;2023-05-01T05:18:37;100751.91;;;13.93;44.56
54455;BME280;40364;52.270;10.546;2023-05-01T05:21:05;100749.84;;;14.06;45.08
54455;BME280;40364;52.270;10.546;2023-05-01T05:23:32;100743.94;;;14.27;44.57
54455;BME280;40364;52.270;10.546;2023-05-01T05:25:59;100742.34;;;13.94;44.64
54455;BME280;40364;52.270;10.546;2023-05-01T05:28:26;100738.38;;;13.95;44.74
54455;BME280;40364;52.270;10.546;2023-05-01T05:30:52;100748.75;;;13.79;45.08
54455;BME280;40364;52.270;10.546;2023-05-01T05:33:21;100736.38;;;13.80;45.14
54455;BME280;40364;52.270;10.546;2023-05-01T05:35:49;100741.59;;;14.13;44.42
54455;BME280;40364;52.270;10.546;2023-05-01T05:38:16;100734.22;;;13.58;44.88
54455;BME280;40364;52.270;10.546;2023-05-01T05:40:43;100740.25;;;13.44;44.66
54455;BME280;40364;52.270;10.546;2023-05-01T05:43:09;100739.00;;;13.73;44.39
54455;BME280;40364;52.270;10.546;2023-05-01T05:45:36;100731.69;;;14.00;43.92
54455;BME280;40364;52.270;10.546;2023-05-01T05:48:03;100725.59;;;14.64;42.86
54455;BME280;40364;52.270;10.546;2023-05-01T05:50:31;100731.94;;;13.79;44.41
54455;BME280;40364;52.270;10.546;2023-05-01T05:52:58;100718.59;;;14.74;42.70
54455;BME280;40364;52.270;10.546;2023-05-01T05:55:24;100724.84;;;14.32;42.98
54455;BME280;40364;52.270;10.546;2023-05-01T05:57:52;100726.72;;;14.79;42.34
54455;BME280;40364;52.270;10.546;2023-05-01T06:00:19;100728.72;;;14.98;41.90
54455;BME280;40364;52.270;10.546;2023-05-01T06:02:45;100727.91;;;14.97;41.74
54455;BME280;40364;52.270;10.546;2023-05-01T06:05:12;100724.50;;;14.88;42.08
54455;BME280;40364;52.270;10.546;2023-05-01T06:07:40;100722.22;;;15.36;41.53
54455;BME280;40364;52.270;10.546;2023-05-01T06:10:08;100719.47;;;15.16;41.83
54455;BME280;40364;52.270;10.546;2023-05-01T06:12:35;100719.88;;;14.41;42.19
54455;BME280;40364;52.270;10.546;2023-05-01T06:15:03;100718.50;;;14.51;42.56
54455;BME280;40364;52.270;10.546;2023-05-01T06:17:30;100712.69;;;14.79;41.87
54455;BME280;40364;52.270;10.546;2023-05-01T06:19:57;100719.16;;;15.02;41.94
54455;BME280;40364;52.270;10.546;2023-05-01T06:22:23;100716.44;;;14.48;42.26
54455;BME280;40364;52.270;10.546;2023-05-01T06:24:52;100722.44;;;15.46;40.76
54455;BME280;40364;52.270;10.546;2023-05-01T06:27:18;100715.53;;;15.63;41.00
54455;BME280;40364;52.270;10.546;2023-05-01T06:29:45;100717.78;;;15.54;40.44
54455;BME280;40364;52.270;10.546;2023-05-01T06:32:11;100716.63;;;16.31;39.49
54455;BME280;40364;52.270;10.546;2023-05-01T06:34:38;100706.31;;;16.38;39.12
54455;BME280;40364;52.270;10.546;2023-05-01T06:37:04;100708.59;;;16.03;40.01
54455;BME280;40364;52.270;10.546;2023-05-01T06:39:31;100703.41;;;16.05;39.75
54455;BME280;40364;52.270;10.546;2023-05-01T06:41:59;100704.59;;;16.30;38.82
54455;BME280;40364;52.270;10.546;2023-05-01T06:44:27;100699.63;;;15.71;39.33
54455;BME280;40364;52.270;10.546;2023-05-01T06:46:54;100701.84;;;16.07;39.44
54455;BME280;40364;52.270;10.546;2023-05-01T06:49:21;100701.66;;;17.13;37.83
54455;BME280;40364;52.270;10.546;2023-05-01T06:51:48;100696.66;;;17.33;37.21
54455;BME280;40364;52.270;10.546;2023-05-01T06:54:15;100699.75;;;16.87;37.39
54455;BME280;40364;52.270;10.546;2023-05-01T06:56:41;100701.44;;;16.35;37.69
54455;BME280;40364;52.270;10.546;2023-05-01T06:59:09;100684.22;;;17.34;36.52
54455;BME280;40364;52.270;10.546;2023-05-01T07:01:36;100690.97;;;16.92;36.75
54455;BME280;40364;52.270;10.546;2023-05-01T07:04:03;100696.69;;;16.66;37.20
54455;BME280;40364;52.270;10.546;2023-05-01T07:06:29;100692.50;;;16.86;36.62
54455;BME280;40364;52.270;10.546;2023-05-01T07:08:57;100691.19;;;15.94;37.73
54455;BME280;40364;52.270;10.546;2023-05-01T07:11:23;100684.78;;;16.76;37.25
54455;BME280;40364;52.270;10.546;2023-05-01T07:13:51;100679.03;;;17.02;37.02
54455;BME280;40364;52.270;10.546;2023-05-01T07:16:19;100682.16;;;17.31;36.16
54455;BME280;40364;52.270;10.546;2023-05-01T07:18:48;100680.50;;;18.18;34.87
54455;BME280;40364;52.270;10.546;2023-05-01T07:21:15;100675.81;;;17.81;34.36
54455;BME280;40364;52.270;10.546;2023-05-01T07:23:41;100682.69;;;18.46;33.55
54455;BME280;40364;52.270;10.546;2023-05-01T07:26:08;100672.16;;;18.36;33.92
54455;BME280;40364;52.270;10.546;2023-05-01T07:28:35;100667.91;;;18.60;33.81
54455;BME280;40364;52.270;10.546;2023-05-01T07:31:01;100672.03;;;18.14;33.53
54455;BME280;40364;52.270;10.546;2023-05-01T07:33:30;100666.41;;;18.18;34.09
54455;BME280;40364;52.270;10.546;2023-05-01T07:35:56;100664.06;;;18.27;33.91
54455;BME280;40364;52.270;10.546;2023-05-01T07:38:23;100652.69;;;17.62;34.87
54455;BME280;40364;52.270;10.546;2023-05-01T07:40:51;100663.91;;;18.75;33.88
54455;BME280;40364;52.270;10.546;2023-05-01T07:43:18;100655.53;;;18.96;33.23
54455;BME280;40364;52.270;10.546;2023-05-01T07:45:53;100652.31;;;18.98;33.13
54455;BME280;40364;52.270;10.546;2023-05-01T07:48:21;100664.13;;;19.46;33.18
54455;BME280;40364;52.270;10.546;2023-05-01T07:50:49;100665.94;;;18.78;33.91
54455;BME280;40364;52.270;10.546;2023-05-01T07:53:16;100662.69;;;17.56;35.16
54455;BME280;40364;52.270;10.546;2023-05-01T07:55:51;100647.78;;;17.99;34.90
54455;BME280;40364;52.270;10.546;2023-05-01T07:58:28;100654.72;;;18.99;33.89
54455;BME280;40364;52.270;10.546;2023-05-01T08:00:59;100649.22;;;19.56;33.47
54455;BME280;40364;52.270;10.546;2023-05-01T08:03:27;100627.44;;;19.53;32.63
54455;BME280;40364;52.270;10.546;2023-05-01T08:05:55;100644.69;;;19.12;33.13
54455;BME280;40364;52.270;10.546;2023-05-01T08:08:22;100641.50;;;19.25;33.12
54455;BME280;40364;52.270;10.546;2023-05-01T08:10:50;100643.88;;;20.29;32.22
54455;BME280;40364;52.270;10.546;2023-05-01T08:13:17;100639.53;;;19.57;32.67
54455;BME280;40364;52.270;10.546;2023-05-01T08:15:44;100638.69;;;19.49;32.88
54455;BME280;40364;52.270;10.546;2023-05-01T08:18:11;100639.03;;;19.12;33.03
54455;BME280;40364;52.270;10.546;2023-05-01T08:20:44;100634.56;;;18.90;33.93
54455;BME280;40364;52.270;10.546;2023-05-01T08:23:15;100621.66;;;18.96;33.65
54455;BME280;40364;52.270;10.546;2023-05-01T08:25:43;100630.66;;;19.52;33.14
54455;BME280;40364;52.270;10.546;2023-05-01T08:28:11;100633.38;;;20.23;32.71
54455;BME280;40364;52.270;10.546;2023-05-01T08:30:38;100622.69;;;20.83;31.64
54455;BME280;40364;52.270;10.546;2023-05-01T08:33:05;100629.84;;;21.68;31.19
54455;BME280;40364;52.270;10.546;2023-05-01T08:35:31;100627.38;;;19.99;32.40
54455;BME280;40364;52.270;10.546;2023-05-01T08:37:58;100630.66;;;19.52;32.86
54455;BME280;40364;52.270;10.546;2023-05-01T08:40:30;100626.16;;;20.11;32.96
54455;BME280;40364;52.270;10.546;2023-05-01T08:42:59;100619.34;;;21.65;31.28
54455;BME280;40364;52.270;10.546;2023-05-01T08:45:26;100621.66;;;21.26;32.12
54455;BME280;40364;52.270;10.546;2023-05-01T08:47:56;100624.38;;;20.74;32.64
54455;BME280;40364;52.270;10.546;2023-05-01T08:50:26;100627.44;;;19.53;33.92
54455;BME280;40364;52.270;10.546;2023-05-01T08:52:53;100623.28;;;20.46;32.70
54455;BME280;40364;52.270;10.546;2023-05-01T08:55:24;100623.19;;;20.68;32.59
54455;BME280;40364;52.270;10.546;2023-05-01T08:57:54;100620.03;;;21.28;31.20
54455;BME280;40364;52.270;10.546;2023-05-01T09:00:21;100628.50;;;21.32;31.89
54455;BME280;40364;52.270;10.546;2023-05-01T09:02:48;100616.41;;;21.24;31.46
54455;BME280;40364;52.270;10.546;2023-05-01T09:05:16;100612.38;;;21.14;31.59
54455;BME280;40364;52.270;10.546;2023-05-01T09:07:43;100620.78;;;20.56;32.20
54455;BME280;40364;52.270;10.546;2023-05-01T09:10:11;100606.03;;;22.00;30.53
54455;BME280;40364;52.270;10.546;2023-05-01T09:12:38;100609.50;;;21.73;30.40
54455;BME280;40364;52.270;10.546;2023-05-01T09:15:09;100599.44;;;21.21;31.94
54455;BME280;40364;52.270;10.546;2023-05-01T09:17:36;100593.13;;;21.50;31.88
54455;BME280;40364;52.270;10.546;2023-05-01T09:20:04;100598.25;;;22.79;30.95
54455;BME280;40364;52.270;10.546;2023-05-01T09:22:32;100594.38;;;21.46;31.62
54455;BME280;40364;52.270;10.546;2023-05-01T09:25:00;100587.28;;;21.16;32.44
54455;BME280;40364;52.270;10.546;2023-05-01T09:27:28;100589.31;;;22.80;30.96
54455;BME280;40364;52.270;10.546;2023-05-01T09:29:58;100585.50;;;22.60;30.83
54455;BME280;40364;52.270;10.546;2023-05-01T09:32:26;100581.00;;;22.93;30.80
54455;BME280;40364;52.270;10.546;2023-05-01T09:34:54;100577.81;;;23.68;30.31
54455;BME280;40364;52.270;10.546;2023-05-01T09:37:25;100586.44;;;22.50;30.52
54455;BME280;40364;52.270;10.546;2023-05-01T09:40:07;100576.28;;;21.77;31.84
54455;BME280;40364;52.270;10.546;2023-05-01T09:42:35;100583.31;;;22.03;31.82
54455;BME280;40364;52.270;10.546;2023-05-01T09:45:04;100577.66;;;23.52;30.19
54455;BME280;40364;52.270;10.546;2023-05-01T09:47:34;100577.78;;;24.35;29.77
54455;BME280;40364;52.270;10.546;2023-05-01T09:50:01;100570.84;;;24.36;29.13
54455;BME280;40364;52.270;10.546;2023-05-01T09:52:29;100575.00;;;24.51;29.29
54455;BME280;40364;52.270;10.546;2023-05-01T09:55:11;100567.50;;;23.28;30.74
54455;BME280;40364;52.270;10.546;2023-05-01T09:57:38;100559.69;;;22.17;32.25
54455;BME280;40364;52.270;10.546;2023-05-01T10:00:07;100568.78;;;22.66;31.51
54455;BME280;40364;52.270;10.546;2023-05-01T10:02:35;100560.22;;;23.50;30.67
54455;BME280;40364;52.270;10.546;2023-05-01T10:05:02;100567.06;;;23.99;30.33
54455;BME280;40364;52.270;10.546;2023-05-01T10:07:29;100560.81;;;24.08;30.00
54455;BME280;40364;52.270;10.546;2023-05-01T10:09:56;100557.47;;;23.70;29.82
54455;BME280;40364;52.270;10.546;2023-05-01T10:12:23;100558.63;;;23.72;29.79
54455;BME280;40364;52.270;10.546;2023-05-01T10:14:51;100552.78;;;24.03;30.23
54455;BME280;40364;52.270;10.546;2023-05-01T10:17:18;100551.69;;;24.76;29.05
54455;BME280;40364;52.270;10.546;2023-05-01T10:19:46;100549.31;;;24.15;29.90
54455;BME280;40364;52.270;10.546;2023-05-01T10:22:13;100548.81;;;24.40;30.18
54455;BME280;40364;52.270;10.546;2023-05-01T10:24:41;100548.81;;;25.12;29.49
54455;BME280;40364;52.270;10.546;2023-05-01T10:27:08;100547.63;;;23.74;30.07
54455;BME280;40364;52.270;10.546;2023-05-01T10:29:39;100542.09;;;24.86;29.30
54455;BME280;40364;52.270;10.546;2023-05-01T10:32:06;100540.63;;;24.78;28.81
54455;BME280;40364;52.270;10.546;2023-05-01T10:34:37;100538.00;;;24.87;28.87
54455;BME280;40364;52.270;10.546;2023-05-01T10:37:12;100529.88;;;24.85;29.07
54455;BME280;40364;52.270;10.546;2023-05-01T10:39:39;100526.38;;;24.22;29.76
54455;BME280;40364;52.270;10.546;2023-05-01T10:42:06;100524.25;;;25.18;28.91
54455;BME280;40364;52.270;10.546;2023-05-01T10:44:36;100529.06;;;24.49;29.75
54455;BME280;40364;52.270;10.546;2023-05-01T10:47:44;100521.84;;;23.62;30.29
54455;BME280;40364;52.270;10.546;2023-05-01T10:50:13;100518.34;;;23.97;29.95
54455;BME280;40364;52.270;10.546;2023-05-01T10:55:50;100506.22;;;23.73;30.97
54455;BME280;40364;52.270;10.546;2023-05-01T10:58:56;100507.94;;;24.10;30.14
54455;BME280;40364;52.270;10.546;2023-05-01T11:01:27;100499.56;;;24.59;29.75
54455;BME280;40364;52.270;10.546;2023-05-01T11:03:57;100489.91;;;24.89;29.53
54455;BME280;40364;52.270;10.546;2023-05-01T11:06:24;100489.03;;;23.57;30.88
54455;BME280;40364;52.270;10.546;2023-05-01T11:08:51;100482.25;;;24.86;29.80
54455;BME280;40364;52.270;10.546;2023-05-01T11:11:47;100486.34;;;24.85;29.61
54455;BME280;40364;52.270;10.546;2023-05-01T11:14:14;100484.66;;;25.69;28.30
54455;BME280;40364;52.270;10.546;2023-05-01T11:16:42;100483.06;;;25.68;28.12
54455;BME280;40364;52.270;10.546;2023-05-01T11:19:42;100475.00;;;25.79;28.11
54455;BME280;40364;52.270;10.546;2023-05-01T11:21:58;100481.22;;;26.32;27.23
54455;BME280;40364;52.270;10.546;2023-05-01T11:24:34;100478.72;;;27.35;26.60
54455;BME280;40364;52.270;10.546;2023-05-01T11:27:03;100474.44;;;27.65;25.62
54455;BME280;40364;52.270;10.546;2023-05-01T11:29:30;100476.00;;;28.01;25.31
54455;BME280;40364;52.270;10.546;2023-05-01T11:31:57;100474.72;;;27.33;26.09
54455;BME280;40364;52.270;10.546;2023-05-01T11:34:24;100473.31;;;27.50;26.00
54455;BME280;40364;52.270;10.546;2023-05-01T11:36:52;100459.16;;;29.45;24.28
54455;BME280;40364;52.270;10.546;2023-05-01T11:39:19;100462.06;;;29.54;23.64
54455;BME280;40364;52.270;10.546;2023-05-01T11:41:46;100457.25;;;30.24;23.26
54455;BME280;40364;52.270;10.546;2023-05-01T11:44:16;100451.34;;;30.79;22.58
54455;BME280;40364;52.270;10.546;2023-05-01T11:46:43;100462.69;;;28.60;24.01
54455;BME280;40364;52.270;10.546;2023-05-01T11:49:10;100452.09;;;28.69;23.56
54455;BME280;40364;52.270;10.546;2023-05-01T11:51:37;100453.03;;;28.66;23.97
54455;BME280;40364;52.270;10.546;2023-05-01T11:54:05;100442.66;;;29.09;23.31
54455;BME280;40364;52.270;10.546;2023-05-01T11:56:34;100445.00;;;30.99;21.37
54455;BME280;40364;52.270;10.546;2023-05-01T11:59:08;100438.56;;;31.37;20.72
54455;BME280;40364;52.270;10.546;2023-05-01T12:01:37;100442.56;;;31.06;21.50
54455;BME280;40364;52.270;10.546;2023-05-01T12:04:05;100432.44;;;30.45;21.93
54455;BME280;40364;52.270;10.546;2023-05-01T12:06:36;100429.47;;;29.21;22.90
54455;BME280;40364;52.270;10.546;2023-05-01T12:09:08;100438.56;;;28.70;23.74
54455;BME280;40364;52.270;10.546;2023-05-01T12:11:35;100420.66;;;29.06;23.01
54455;BME280;40364;52.270;10.546;2023-05-01T12:14:03;100421.81;;;31.02;22.29
54455;BME280;40364;52.270;10.546;2023-05-01T12:16:30;100428.25;;;30.55;21.97
54455;BME280;40364;52.270;10.546;2023-05-01T12:18:58;100435.72;;;28.48;23.30
54455;BME280;40364;52.270;10.546;2023-05-01T12:21:25;100427.81;;;28.92;23.34
54455;BME280;40364;52.270;10.546;2023-05-01T12:23:52;100435.25;;;28.49;23.76
54455;BME280;40364;52.270;10.546;2023-05-01T12:26:20;100415.81;;;29.61;22.97
54455;BME280;40364;52.270;10.546;2023-05-01T12:28:55;100432.31;;;28.62;23.79
54455;BME280;40364;52.270;10.546;2023-05-01T12:31:23;100428.50;;;28.34;23.75
54455;BME280;40364;52.270;10.546;2023-05-01T12:33:53;100429.50;;;28.80;23.90
54455;BME280;40364;52.270;10.546;2023-05-01T12:36:22;100414.22;;;29.88;22.83
54455;BME280;40364;52.270;10.546;2023-05-01T12:38:59;100419.25;;;29.10;23.74
54455;BME280;40364;52.270;10.546;2023-05-01T12:41:34;100414.84;;;30.01;22.66
54455;BME280;40364;52.270;10.546;2023-05-01T12:44:01;100419.00;;;28.46;23.85
54455;BME280;40364;52.270;10.546;2023-05-01T12:46:28;100411.31;;;28.74;24.13
54455;BME280;40364;52.270;10.546;2023-05-01T12:48:55;100407.00;;;30.10;22.84
54455;BME280;40364;52.270;10.546;2023-05-01T12:51:23;100419.03;;;29.63;23.10